sensor_id;sensor_type;location;lat;lon;timestamp;temperature;humidity
76509;SHT31;65340;51.966;5.652;2023-03-12T00:02:05;14.1;35.7
76509;SHT31;65340;51.966;5.652;2023-03-12T00:04:35;14.1;35.8
76509;SHT31;65340;51.966;5.652;2023-03-12T00:07:05;14.1;35.7
76509;SHT31;65340;51.966;5.652;2023-03-12T00:09:36;14.1;35.8
76509;SHT31;65340;51.966;5.652;2023-03-12T00:12:07;14.1;35.8
76509;SHT31;65340;51.966;5.652;2023-03-12T00:14:37;14.1;35.9
76509;SHT31;65340;51.966;5.652;2023-03-12T00:17:07;14.1;35.9
76509;SHT31;65340;51.966;5.652;2023-03-12T00:19:36;14.1;35.9
76509;SHT31;65340;51.966;5.652;2023-03-12T00:22:06;14.1;35.9
76509;SHT31;65340;51.966;5.652;2023-03-12T00:24:36;14.1;36.0
76509;SHT31;65340;51.966;5.652;2023-03-12T00:27:05;14.1;36.0
76509;SHT31;65340;51.966;5.652;2023-03-12T00:29:35;14.1;36.0
76509;SHT31;65340;51.966;5.652;2023-03-12T00:32:05;14.1;36.1
76509;SHT31;65340;51.966;5.652;2023-03-12T00:34:35;14.1;36.1
76509;SHT31;65340;51.966;5.652;2023-03-12T00:37:05;14.1;36.1
76509;SHT31;65340;51.966;5.652;2023-03-12T00:39:35;14.1;36.1
76509;SHT31;65340;51.966;5.652;2023-03-12T00:42:05;14.1;36.1
76509;SHT31;65340;51.966;5.652;2023-03-12T00:44:35;14.1;36.1
76509;SHT31;65340;51.966;5.652;2023-03-12T00:47:05;14.1;36.2
76509;SHT31;65340;51.966;5.652;2023-03-12T00:49:36;14.1;36.2
76509;SHT31;65340;51.966;5.652;2023-03-12T00:52:06;14.1;36.2
76509;SHT31;65340;51.966;5.652;2023-03-12T00:54:35;14.1;36.2
76509;SHT31;65340;51.966;5.652;2023-03-12T00:57:05;14.1;36.2
76509;SHT31;65340;51.966;5.652;2023-03-12T00:59:35;14.1;36.3
76509;SHT31;65340;51.966;5.652;2023-03-12T01:02:07;14.1;36.3
76509;SHT31;65340;51.966;5.652;2023-03-12T01:04:37;14.1;36.4
76509;SHT31;65340;51.966;5.652;2023-03-12T01:07:06;14.1;36.3
76509;SHT31;65340;51.966;5.652;2023-03-12T01:09:36;14.1;36.2
76509;SHT31;65340;51.966;5.652;2023-03-12T01:12:08;14.1;36.3
76509;SHT31;65340;51.966;5.652;2023-03-12T01:14:39;14.1;36.3
76509;SHT31;65340;51.966;5.652;2023-03-12T01:17:08;14.1;36.3
76509;SHT31;65340;51.966;5.652;2023-03-12T01:19:38;14.1;36.4
76509;SHT31;65340;51.966;5.652;2023-03-12T01:22:08;14.1;36.3
76509;SHT31;65340;51.966;5.652;2023-03-12T01:24:37;14.1;36.4
76509;SHT31;65340;51.966;5.652;2023-03-12T01:27:07;14.1;36.3
76509;SHT31;65340;51.966;5.652;2023-03-12T01:29:37;14.1;36.3
76509;SHT31;65340;51.966;5.652;2023-03-12T01:32:07;14.0;36.5
76509;SHT31;65340;51.966;5.652;2023-03-12T01:34:37;14.1;36.4
76509;SHT31;65340;51.966;5.652;2023-03-12T01:37:07;14.0;36.4
76509;SHT31;65340;51.966;5.652;2023-03-12T01:39:37;14.0;36.4
76509;SHT31;65340;51.966;5.652;2023-03-12T01:42:07;14.0;36.5
76509;SHT31;65340;51.966;5.652;2023-03-12T01:44:54;14.0;36.4
76509;SHT31;65340;51.966;5.652;2023-03-12T01:47:25;14.0;36.5
76509;SHT31;65340;51.966;5.652;2023-03-12T01:49:55;14.0;36.5
76509;SHT31;65340;51.966;5.652;2023-03-12T01:52:28;14.0;36.5
76509;SHT31;65340;51.966;5.652;2023-03-12T01:55:02;14.0;36.4
76509;SHT31;65340;51.966;5.652;2023-03-12T01:57:38;14.0;36.5
76509;SHT31;65340;51.966;5.652;2023-03-12T02:00:12;14.0;36.6
76509;SHT31;65340;51.966;5.652;2023-03-12T02:02:44;14.0;36.6
76509;SHT31;65340;51.966;5.652;2023-03-12T02:05:21;14.0;36.6
76509;SHT31;65340;51.966;5.652;2023-03-12T02:07:53;14.0;36.6
76509;SHT31;65340;51.966;5.652;2023-03-12T02:10:25;14.0;36.5
76509;SHT31;65340;51.966;5.652;2023-03-12T02:12:55;14.0;36.6
76509;SHT31;65340;51.966;5.652;2023-03-12T02:15:26;14.0;36.6
76509;SHT31;65340;51.966;5.652;2023-03-12T02:17:58;14.0;36.7
76509;SHT31;65340;51.966;5.652;2023-03-12T02:20:37;14.0;36.7
76509;SHT31;65340;51.966;5.652;2023-03-12T02:23:14;14.0;36.6
76509;SHT31;65340;51.966;5.652;2023-03-12T02:25:48;14.0;36.6
76509;SHT31;65340;51.966;5.652;2023-03-12T02:28:20;14.0;36.7
76509;SHT31;65340;51.966;5.652;2023-03-12T02:30:56;14.0;36.7
76509;SHT31;65340;51.966;5.652;2023-03-12T02:33:26;14.0;36.7
76509;SHT31;65340;51.966;5.652;2023-03-12T02:35:56;14.0;36.6
76509;SHT31;65340;51.966;5.652;2023-03-12T02:38:39;14.0;36.6
76509;SHT31;65340;51.966;5.652;2023-03-12T02:41:15;14.0;36.7
76509;SHT31;65340;51.966;5.652;2023-03-12T02:43:49;14.0;36.6
76509;SHT31;65340;51.966;5.652;2023-03-12T02:46:20;14.0;36.7
76509;SHT31;65340;51.966;5.652;2023-03-12T02:48:50;14.0;36.7
76509;SHT31;65340;51.966;5.652;2023-03-12T02:51:21;14.0;36.7
76509;SHT31;65340;51.966;5.652;2023-03-12T02:53:52;14.0;36.7
76509;SHT31;65340;51.966;5.652;2023-03-12T02:56:24;14.0;36.7
76509;SHT31;65340;51.966;5.652;2023-03-12T02:58:55;14.0;36.8
76509;SHT31;65340;51.966;5.652;2023-03-12T03:01:27;14.0;36.7
76509;SHT31;65340;51.966;5.652;2023-03-12T03:04:00;14.0;36.7
76509;SHT31;65340;51.966;5.652;2023-03-12T03:06:31;14.0;36.7
76509;SHT31;65340;51.966;5.652;2023-03-12T03:09:03;14.0;36.9
76509;SHT31;65340;51.966;5.652;2023-03-12T03:11:35;14.1;36.9
76509;SHT31;65340;51.966;5.652;2023-03-12T03:14:05;14.1;36.7
76509;SHT31;65340;51.966;5.652;2023-03-12T03:16:36;14.1;36.7
76509;SHT31;65340;51.966;5.652;2023-03-12T03:19:06;14.1;36.7
76509;SHT31;65340;51.966;5.652;2023-03-12T03:21:37;14.1;36.8
76509;SHT31;65340;51.966;5.652;2023-03-12T03:24:09;14.1;36.7
76509;SHT31;65340;51.966;5.652;2023-03-12T03:26:38;14.1;36.7
76509;SHT31;65340;51.966;5.652;2023-03-12T03:29:08;14.0;36.6
76509;SHT31;65340;51.966;5.652;2023-03-12T03:31:38;14.0;36.6
76509;SHT31;65340;51.966;5.652;2023-03-12T03:34:07;14.0;36.7
76509;SHT31;65340;51.966;5.652;2023-03-12T03:36:37;14.0;36.8
76509;SHT31;65340;51.966;5.652;2023-03-12T03:39:09;14.0;36.7
76509;SHT31;65340;51.966;5.652;2023-03-12T03:41:38;14.0;36.8
76509;SHT31;65340;51.966;5.652;2023-03-12T03:44:09;14.0;36.8
76509;SHT31;65340;51.966;5.652;2023-03-12T03:46:39;13.9;36.8
76509;SHT31;65340;51.966;5.652;2023-03-12T03:49:09;13.9;36.8
76509;SHT31;65340;51.966;5.652;2023-03-12T03:51:41;13.9;36.8
76509;SHT31;65340;51.966;5.652;2023-03-12T03:54:12;13.9;36.8
76509;SHT31;65340;51.966;5.652;2023-03-12T03:56:42;13.9;36.8
76509;SHT31;65340;51.966;5.652;2023-03-12T03:59:12;13.9;36.8
76509;SHT31;65340;51.966;5.652;2023-03-12T04:01:42;13.8;36.8
76509;SHT31;65340;51.966;5.652;2023-03-12T04:04:11;13.8;36.8
76509;SHT31;65340;51.966;5.652;2023-03-12T04:06:41;13.8;36.9
76509;SHT31;65340;51.966;5.652;2023-03-12T04:09:12;13.8;36.9
76509;SHT31;65340;51.966;5.652;2023-03-12T04:11:42;13.7;37.0
76509;SHT31;65340;51.966;5.652;2023-03-12T04:14:12;13.7;37.0
76509;SHT31;65340;51.966;5.652;2023-03-12T04:16:42;13.7;37.0
76509;SHT31;65340;51.966;5.652;2023-03-12T04:19:11;13.7;37.1
76509;SHT31;65340;51.966;5.652;2023-03-12T04:21:41;13.7;37.1
76509;SHT31;65340;51.966;5.652;2023-03-12T04:24:14;13.7;37.2
76509;SHT31;65340;51.966;5.652;2023-03-12T04:26:46;13.7;37.2
76509;SHT31;65340;51.966;5.652;2023-03-12T04:29:17;13.6;37.2
76509;SHT31;65340;51.966;5.652;2023-03-12T04:31:49;13.6;37.2
76509;SHT31;65340;51.966;5.652;2023-03-12T04:34:19;13.6;37.3
76509;SHT31;65340;51.966;5.652;2023-03-12T04:36:49;13.6;37.4
76509;SHT31;65340;51.966;5.652;2023-03-12T04:39:19;13.6;37.4
76509;SHT31;65340;51.966;5.652;2023-03-12T04:41:51;13.6;37.4
76509;SHT31;65340;51.966;5.652;2023-03-12T04:44:21;13.6;37.6
76509;SHT31;65340;51.966;5.652;2023-03-12T04:46:51;13.6;37.6
76509;SHT31;65340;51.966;5.652;2023-03-12T04:49:21;13.6;37.7
76509;SHT31;65340;51.966;5.652;2023-03-12T04:51:51;13.6;37.8
76509;SHT31;65340;51.966;5.652;2023-03-12T04:54:21;13.6;37.9
76509;SHT31;65340;51.966;5.652;2023-03-12T04:56:51;13.6;37.9
76509;SHT31;65340;51.966;5.652;2023-03-12T04:59:20;13.6;38.0
76509;SHT31;65340;51.966;5.652;2023-03-12T05:01:50;13.6;38.0
76509;SHT31;65340;51.966;5.652;2023-03-12T05:04:20;13.6;38.2
76509;SHT31;65340;51.966;5.652;2023-03-12T05:06:49;13.6;38.2
76509;SHT31;65340;51.966;5.652;2023-03-12T05:09:19;13.6;38.2
76509;SHT31;65340;51.966;5.652;2023-03-12T05:11:48;13.6;38.3
76509;SHT31;65340;51.966;5.652;2023-03-12T05:14:18;13.6;38.2
76509;SHT31;65340;51.966;5.652;2023-03-12T05:16:48;13.6;38.3
76509;SHT31;65340;51.966;5.652;2023-03-12T05:19:18;13.6;38.3
76509;SHT31;65340;51.966;5.652;2023-03-12T05:21:48;13.6;38.2
76509;SHT31;65340;51.966;5.652;2023-03-12T05:24:18;13.6;38.3
76509;SHT31;65340;51.966;5.652;2023-03-12T05:26:48;13.7;38.2
76509;SHT31;65340;51.966;5.652;2023-03-12T05:29:20;13.7;38.3
76509;SHT31;65340;51.966;5.652;2023-03-12T05:31:50;13.7;38.3
76509;SHT31;65340;51.966;5.652;2023-03-12T05:34:22;13.7;38.3
76509;SHT31;65340;51.966;5.652;2023-03-12T05:36:51;13.7;38.2
76509;SHT31;65340;51.966;5.652;2023-03-12T05:39:21;13.7;38.3
76509;SHT31;65340;51.966;5.652;2023-03-12T05:41:51;13.7;38.3
76509;SHT31;65340;51.966;5.652;2023-03-12T05:44:24;13.6;38.3
76509;SHT31;65340;51.966;5.652;2023-03-12T05:46:55;13.6;38.4
76509;SHT31;65340;51.966;5.652;2023-03-12T05:49:28;13.6;38.4
76509;SHT31;65340;51.966;5.652;2023-03-12T05:51:57;13.6;38.5
76509;SHT31;65340;51.966;5.652;2023-03-12T05:54:27;13.6;38.5
76509;SHT31;65340;51.966;5.652;2023-03-12T05:56:58;13.6;38.6
76509;SHT31;65340;51.966;5.652;2023-03-12T05:59:29;13.6;38.6
76509;SHT31;65340;51.966;5.652;2023-03-12T06:02:01;13.6;38.7
76509;SHT31;65340;51.966;5.652;2023-03-12T06:04:31;13.6;38.7
76509;SHT31;65340;51.966;5.652;2023-03-12T06:07:01;13.6;38.7
76509;SHT31;65340;51.966;5.652;2023-03-12T06:09:31;13.6;38.8
76509;SHT31;65340;51.966;5.652;2023-03-12T06:12:01;13.6;38.8
76509;SHT31;65340;51.966;5.652;2023-03-12T06:14:31;13.6;38.9
76509;SHT31;65340;51.966;5.652;2023-03-12T06:17:01;13.5;38.9
76509;SHT31;65340;51.966;5.652;2023-03-12T06:19:31;13.5;39.1
76509;SHT31;65340;51.966;5.652;2023-03-12T06:22:00;13.5;39.1
76509;SHT31;65340;51.966;5.652;2023-03-12T06:24:30;13.5;39.2
76509;SHT31;65340;51.966;5.652;2023-03-12T06:27:00;13.5;39.2
76509;SHT31;65340;51.966;5.652;2023-03-12T06:29:30;13.5;39.3
76509;SHT31;65340;51.966;5.652;2023-03-12T06:31:59;13.5;39.4
76509;SHT31;65340;51.966;5.652;2023-03-12T06:34:29;13.5;39.5
76509;SHT31;65340;51.966;5.652;2023-03-12T06:36:59;13.5;39.5
76509;SHT31;65340;51.966;5.652;2023-03-12T06:39:28;13.5;39.6
76509;SHT31;65340;51.966;5.652;2023-03-12T06:41:58;13.5;39.7
76509;SHT31;65340;51.966;5.652;2023-03-12T06:44:28;13.5;39.8
76509;SHT31;65340;51.966;5.652;2023-03-12T06:46:57;13.5;39.9
76509;SHT31;65340;51.966;5.652;2023-03-12T06:49:27;13.5;40.0
76509;SHT31;65340;51.966;5.652;2023-03-12T06:51:59;13.5;40.2
76509;SHT31;65340;51.966;5.652;2023-03-12T06:54:29;13.4;40.3
76509;SHT31;65340;51.966;5.652;2023-03-12T06:56:59;13.4;40.5
76509;SHT31;65340;51.966;5.652;2023-03-12T06:59:28;13.4;40.6
76509;SHT31;65340;51.966;5.652;2023-03-12T07:01:58;13.4;40.7
76509;SHT31;65340;51.966;5.652;2023-03-12T07:04:29;13.4;40.8
76509;SHT31;65340;51.966;5.652;2023-03-12T07:06:59;13.4;40.9
76509;SHT31;65340;51.966;5.652;2023-03-12T07:09:29;13.4;41.0
76509;SHT31;65340;51.966;5.652;2023-03-12T07:11:59;13.4;41.0
76509;SHT31;65340;51.966;5.652;2023-03-12T07:14:30;13.4;41.2
76509;SHT31;65340;51.966;5.652;2023-03-12T07:17:02;13.4;41.2
76509;SHT31;65340;51.966;5.652;2023-03-12T07:19:32;13.4;41.4
76509;SHT31;65340;51.966;5.652;2023-03-12T07:22:02;13.4;41.5
76509;SHT31;65340;51.966;5.652;2023-03-12T07:24:31;13.4;41.6
76509;SHT31;65340;51.966;5.652;2023-03-12T07:27:01;13.4;41.7
76509;SHT31;65340;51.966;5.652;2023-03-12T07:29:31;13.4;41.8
76509;SHT31;65340;51.966;5.652;2023-03-12T07:32:01;13.4;41.9
76509;SHT31;65340;51.966;5.652;2023-03-12T07:34:30;13.4;42.0
76509;SHT31;65340;51.966;5.652;2023-03-12T07:37:00;13.4;42.1
76509;SHT31;65340;51.966;5.652;2023-03-12T07:39:30;13.4;42.2
76509;SHT31;65340;51.966;5.652;2023-03-12T07:42:00;13.4;42.3
76509;SHT31;65340;51.966;5.652;2023-03-12T07:44:30;13.4;42.4
76509;SHT31;65340;51.966;5.652;2023-03-12T07:47:00;13.4;42.6
76509;SHT31;65340;51.966;5.652;2023-03-12T07:49:29;13.4;42.7
76509;SHT31;65340;51.966;5.652;2023-03-12T07:51:59;13.4;42.8
76509;SHT31;65340;51.966;5.652;2023-03-12T07:54:29;13.4;42.9
76509;SHT31;65340;51.966;5.652;2023-03-12T07:56:58;13.4;43.0
76509;SHT31;65340;51.966;5.652;2023-03-12T07:59:28;13.4;43.1
76509;SHT31;65340;51.966;5.652;2023-03-12T08:01:58;13.4;43.2
76509;SHT31;65340;51.966;5.652;2023-03-12T08:04:28;13.4;43.3
76509;SHT31;65340;51.966;5.652;2023-03-12T08:06:57;13.4;43.4
76509;SHT31;65340;51.966;5.652;2023-03-12T08:09:27;13.4;43.5
76509;SHT31;65340;51.966;5.652;2023-03-12T08:11:57;13.4;43.5
76509;SHT31;65340;51.966;5.652;2023-03-12T08:14:26;13.4;43.6
76509;SHT31;65340;51.966;5.652;2023-03-12T08:16:58;13.4;43.6
76509;SHT31;65340;51.966;5.652;2023-03-12T08:19:28;13.4;43.8
76509;SHT31;65340;51.966;5.652;2023-03-12T08:21:57;13.4;43.9
76509;SHT31;65340;51.966;5.652;2023-03-12T08:24:27;13.4;44.3
76509;SHT31;65340;51.966;5.652;2023-03-12T08:26:57;13.4;44.3
76509;SHT31;65340;51.966;5.652;2023-03-12T08:29:26;13.4;44.4
76509;SHT31;65340;51.966;5.652;2023-03-12T08:31:56;13.4;44.5
76509;SHT31;65340;51.966;5.652;2023-03-12T08:34:26;13.4;44.6
76509;SHT31;65340;51.966;5.652;2023-03-12T08:36:55;13.4;44.8
76509;SHT31;65340;51.966;5.652;2023-03-12T08:39:25;13.4;45.0
76509;SHT31;65340;51.966;5.652;2023-03-12T08:41:55;13.4;45.0
76509;SHT31;65340;51.966;5.652;2023-03-12T08:44:25;13.4;44.9
76509;SHT31;65340;51.966;5.652;2023-03-12T08:46:55;13.4;45.1
76509;SHT31;65340;51.966;5.652;2023-03-12T08:49:27;13.4;45.3
76509;SHT31;65340;51.966;5.652;2023-03-12T08:51:56;13.4;45.4
76509;SHT31;65340;51.966;5.652;2023-03-12T08:54:26;13.4;45.5
76509;SHT31;65340;51.966;5.652;2023-03-12T08:56:58;13.4;45.5
76509;SHT31;65340;51.966;5.652;2023-03-12T08:59:28;13.4;45.5
76509;SHT31;65340;51.966;5.652;2023-03-12T09:01:58;13.4;45.7
76509;SHT31;65340;51.966;5.652;2023-03-12T09:04:28;13.4;45.8
76509;SHT31;65340;51.966;5.652;2023-03-12T09:06:59;13.4;45.8
76509;SHT31;65340;51.966;5.652;2023-03-12T09:09:29;13.4;46.1
76509;SHT31;65340;51.966;5.652;2023-03-12T09:11:59;13.4;46.1
76509;SHT31;65340;51.966;5.652;2023-03-12T09:14:28;13.4;46.2
76509;SHT31;65340;51.966;5.652;2023-03-12T09:16:58;13.4;46.3
76509;SHT31;65340;51.966;5.652;2023-03-12T09:19:28;13.4;46.3
76509;SHT31;65340;51.966;5.652;2023-03-12T09:21:58;13.3;46.4
76509;SHT31;65340;51.966;5.652;2023-03-12T09:24:28;13.3;46.4
76509;SHT31;65340;51.966;5.652;2023-03-12T09:26:58;13.3;46.5
76509;SHT31;65340;51.966;5.652;2023-03-12T09:29:27;13.3;46.6
76509;SHT31;65340;51.966;5.652;2023-03-12T09:31:57;13.3;46.6
76509;SHT31;65340;51.966;5.652;2023-03-12T09:34:29;13.3;46.8
76509;SHT31;65340;51.966;5.652;2023-03-12T09:36:58;13.3;46.9
76509;SHT31;65340;51.966;5.652;2023-03-12T09:39:28;13.3;47.1
76509;SHT31;65340;51.966;5.652;2023-03-12T09:41:58;13.3;46.9
76509;SHT31;65340;51.966;5.652;2023-03-12T09:44:33;13.3;47.1
76509;SHT31;65340;51.966;5.652;2023-03-12T09:47:09;13.3;47.2
76509;SHT31;65340;51.966;5.652;2023-03-12T09:49:44;13.3;47.5
76509;SHT31;65340;51.966;5.652;2023-03-12T09:52:23;13.3;47.6
76509;SHT31;65340;51.966;5.652;2023-03-12T09:55:00;13.3;47.5
76509;SHT31;65340;51.966;5.652;2023-03-12T09:57:31;13.3;47.7
76509;SHT31;65340;51.966;5.652;2023-03-12T10:00:01;13.3;47.9
76509;SHT31;65340;51.966;5.652;2023-03-12T10:03:24;13.3;48.0
76509;SHT31;65340;51.966;5.652;2023-03-12T10:06:10;13.3;48.0
76509;SHT31;65340;51.966;5.652;2023-03-12T10:08:53;13.3;48.4
76509;SHT31;65340;51.966;5.652;2023-03-12T10:11:39;13.3;48.3
76509;SHT31;65340;51.966;5.652;2023-03-12T10:14:20;13.3;48.5
76509;SHT31;65340;51.966;5.652;2023-03-12T10:16:59;13.3;48.7
76509;SHT31;65340;51.966;5.652;2023-03-12T10:19:52;13.3;49.0
76509;SHT31;65340;51.966;5.652;2023-03-12T10:22:39;13.3;49.1
76509;SHT31;65340;51.966;5.652;2023-03-12T10:25:20;13.3;49.4
76509;SHT31;65340;51.966;5.652;2023-03-12T10:27:51;13.3;49.6
76509;SHT31;65340;51.966;5.652;2023-03-12T10:30:23;13.3;49.6
76509;SHT31;65340;51.966;5.652;2023-03-12T10:32:55;13.3;49.9
76509;SHT31;65340;51.966;5.652;2023-03-12T10:35:27;13.3;50.0
76509;SHT31;65340;51.966;5.652;2023-03-12T10:38:00;13.4;50.1
76509;SHT31;65340;51.966;5.652;2023-03-12T10:40:32;13.4;50.1
76509;SHT31;65340;51.966;5.652;2023-03-12T10:43:03;13.4;50.2
76509;SHT31;65340;51.966;5.652;2023-03-12T10:45:38;13.4;50.4
76509;SHT31;65340;51.966;5.652;2023-03-12T10:48:19;13.4;50.8
76509;SHT31;65340;51.966;5.652;2023-03-12T10:51:02;13.4;50.8
76509;SHT31;65340;51.966;5.652;2023-03-12T10:53:33;13.4;51.1
76509;SHT31;65340;51.966;5.652;2023-03-12T10:56:05;13.4;51.4
76509;SHT31;65340;51.966;5.652;2023-03-12T10:58:38;13.4;51.3
76509;SHT31;65340;51.966;5.652;2023-03-12T11:01:20;13.5;51.8
76509;SHT31;65340;51.966;5.652;2023-03-12T11:03:52;13.5;51.7
76509;SHT31;65340;51.966;5.652;2023-03-12T11:06:28;13.5;51.9
76509;SHT31;65340;51.966;5.652;2023-03-12T11:09:06;13.5;52.1
76509;SHT31;65340;51.966;5.652;2023-03-12T11:11:41;13.5;52.3
76509;SHT31;65340;51.966;5.652;2023-03-12T11:14:18;13.5;52.2
76509;SHT31;65340;51.966;5.652;2023-03-12T11:16:49;13.5;53.0
76509;SHT31;65340;51.966;5.652;2023-03-12T11:19:28;13.5;52.7
76509;SHT31;65340;51.966;5.652;2023-03-12T11:22:00;13.5;53.2
76509;SHT31;65340;51.966;5.652;2023-03-12T11:24:31;13.5;52.9
76509;SHT31;65340;51.966;5.652;2023-03-12T11:27:05;13.5;53.0
76509;SHT31;65340;51.966;5.652;2023-03-12T11:29:38;13.5;53.2
76509;SHT31;65340;51.966;5.652;2023-03-12T11:32:17;13.6;53.1
76509;SHT31;65340;51.966;5.652;2023-03-12T11:34:50;13.6;53.1
76509;SHT31;65340;51.966;5.652;2023-03-12T11:37:33;13.6;53.4
76509;SHT31;65340;51.966;5.652;2023-03-12T11:40:13;13.6;53.4
76509;SHT31;65340;51.966;5.652;2023-03-12T11:42:58;13.6;53.5
76509;SHT31;65340;51.966;5.652;2023-03-12T11:45:42;13.6;53.6
76509;SHT31;65340;51.966;5.652;2023-03-12T11:48:23;13.6;53.8
76509;SHT31;65340;51.966;5.652;2023-03-12T11:51:08;13.6;54.2
76509;SHT31;65340;51.966;5.652;2023-03-12T11:54:04;13.6;53.8
76509;SHT31;65340;51.966;5.652;2023-03-12T11:56:38;13.6;54.2
76509;SHT31;65340;51.966;5.652;2023-03-12T11:59:38;13.6;54.6
76509;SHT31;65340;51.966;5.652;2023-03-12T12:07:07;13.6;54.8
76509;SHT31;65340;51.966;5.652;2023-03-12T12:09:46;13.6;54.9
76509;SHT31;65340;51.966;5.652;2023-03-12T12:12:34;13.7;55.0
76509;SHT31;65340;51.966;5.652;2023-03-12T12:15:18;13.7;54.9
76509;SHT31;65340;51.966;5.652;2023-03-12T12:17:56;13.7;55.5
76509;SHT31;65340;51.966;5.652;2023-03-12T12:20:41;13.7;55.0
76509;SHT31;65340;51.966;5.652;2023-03-12T12:23:20;13.7;55.3
76509;SHT31;65340;51.966;5.652;2023-03-12T12:26:05;13.7;55.9
76509;SHT31;65340;51.966;5.652;2023-03-12T12:29:01;13.7;55.5
76509;SHT31;65340;51.966;5.652;2023-03-12T12:31:38;13.7;55.6
76509;SHT31;65340;51.966;5.652;2023-03-12T12:35:10;13.7;55.5
76509;SHT31;65340;51.966;5.652;2023-03-12T12:37:50;13.7;55.7
76509;SHT31;65340;51.966;5.652;2023-03-12T12:40:26;13.7;56.1
76509;SHT31;65340;51.966;5.652;2023-03-12T12:43:04;13.7;55.7
76509;SHT31;65340;51.966;5.652;2023-03-12T12:45:39;13.7;56.3
76509;SHT31;65340;51.966;5.652;2023-03-12T12:48:15;13.7;56.6
76509;SHT31;65340;51.966;5.652;2023-03-12T12:50:48;13.7;57.1
76509;SHT31;65340;51.966;5.652;2023-03-12T12:53:24;13.8;57.0
76509;SHT31;65340;51.966;5.652;2023-03-12T12:56:02;13.8;56.7
76509;SHT31;65340;51.966;5.652;2023-03-12T12:58:48;13.8;57.4
76509;SHT31;65340;51.966;5.652;2023-03-12T13:01:20;13.8;56.7
76509;SHT31;65340;51.966;5.652;2023-03-12T13:03:50;13.8;56.8
76509;SHT31;65340;51.966;5.652;2023-03-12T13:06:30;13.8;57.2
76509;SHT31;65340;51.966;5.652;2023-03-12T13:09:15;13.8;57.2
76509;SHT31;65340;51.966;5.652;2023-03-12T13:11:45;13.8;57.2
76509;SHT31;65340;51.966;5.652;2023-03-12T13:14:40;13.8;57.1
76509;SHT31;65340;51.966;5.652;2023-03-12T13:17:22;13.9;57.2
76509;SHT31;65340;51.966;5.652;2023-03-12T13:19:57;13.9;57.7
76509;SHT31;65340;51.966;5.652;2023-03-12T13:22:55;13.9;57.3
76509;SHT31;65340;51.966;5.652;2023-03-12T13:25:33;13.9;57.5
76509;SHT31;65340;51.966;5.652;2023-03-12T13:28:28;13.9;57.2
76509;SHT31;65340;51.966;5.652;2023-03-12T13:31:02;14.0;57.5
76509;SHT31;65340;51.966;5.652;2023-03-12T13:33:41;14.0;57.2
76509;SHT31;65340;51.966;5.652;2023-03-12T13:36:20;14.0;57.2
76509;SHT31;65340;51.966;5.652;2023-03-12T13:38:58;14.0;57.0
76509;SHT31;65340;51.966;5.652;2023-03-12T13:41:33;14.0;57.2
76509;SHT31;65340;51.966;5.652;2023-03-12T13:44:47;14.0;57.0
76509;SHT31;65340;51.966;5.652;2023-03-12T13:47:22;14.0;56.7
76509;SHT31;65340;51.966;5.652;2023-03-12T13:49:57;14.0;56.8
76509;SHT31;65340;51.966;5.652;2023-03-12T13:52:30;14.0;56.5
76509;SHT31;65340;51.966;5.652;2023-03-12T13:55:06;14.0;56.5
76509;SHT31;65340;51.966;5.652;2023-03-12T13:57:42;14.0;56.5
76509;SHT31;65340;51.966;5.652;2023-03-12T14:00:18;14.0;56.4
76509;SHT31;65340;51.966;5.652;2023-03-12T14:02:53;14.1;56.4
76509;SHT31;65340;51.966;5.652;2023-03-12T14:05:24;14.1;56.4
76509;SHT31;65340;51.966;5.652;2023-03-12T14:08:10;14.2;56.2
76509;SHT31;65340;51.966;5.652;2023-03-12T14:10:54;14.2;56.3
76509;SHT31;65340;51.966;5.652;2023-03-12T14:13:41;14.3;56.0
76509;SHT31;65340;51.966;5.652;2023-03-12T14:16:22;14.3;55.8
76509;SHT31;65340;51.966;5.652;2023-03-12T14:18:55;14.4;55.8
76509;SHT31;65340;51.966;5.652;2023-03-12T14:21:34;14.4;55.8
76509;SHT31;65340;51.966;5.652;2023-03-12T14:24:06;14.4;55.5
76509;SHT31;65340;51.966;5.652;2023-03-12T14:26:39;14.5;55.3
76509;SHT31;65340;51.966;5.652;2023-03-12T14:29:18;14.5;55.1
76509;SHT31;65340;51.966;5.652;2023-03-12T14:31:51;14.5;55.1
76509;SHT31;65340;51.966;5.652;2023-03-12T14:34:26;14.5;54.8
76509;SHT31;65340;51.966;5.652;2023-03-12T14:37:03;14.5;55.0
76509;SHT31;65340;51.966;5.652;2023-03-12T14:39:41;14.5;54.9
76509;SHT31;65340;51.966;5.652;2023-03-12T14:42:19;14.5;54.7
76509;SHT31;65340;51.966;5.652;2023-03-12T14:44:57;14.6;54.7
76509;SHT31;65340;51.966;5.652;2023-03-12T14:47:28;14.6;54.7
76509;SHT31;65340;51.966;5.652;2023-03-12T14:49:58;14.6;54.6
76509;SHT31;65340;51.966;5.652;2023-03-12T14:52:28;14.6;54.5
76509;SHT31;65340;51.966;5.652;2023-03-12T14:55:05;14.6;54.5
76509;SHT31;65340;51.966;5.652;2023-03-12T14:57:36;14.6;54.5
76509;SHT31;65340;51.966;5.652;2023-03-12T15:00:07;14.6;54.3
76509;SHT31;65340;51.966;5.652;2023-03-12T15:02:43;14.6;54.1
76509;SHT31;65340;51.966;5.652;2023-03-12T15:05:17;14.6;54.1
76509;SHT31;65340;51.966;5.652;2023-03-12T15:07:50;14.6;54.0
76509;SHT31;65340;51.966;5.652;2023-03-12T15:10:24;14.6;54.0
76509;SHT31;65340;51.966;5.652;2023-03-12T15:12:56;14.6;53.9
76509;SHT31;65340;51.966;5.652;2023-03-12T15:15:34;14.7;53.7
76509;SHT31;65340;51.966;5.652;2023-03-12T15:18:07;14.7;53.7
76509;SHT31;65340;51.966;5.652;2023-03-12T15:20:40;14.7;53.5
76509;SHT31;65340;51.966;5.652;2023-03-12T15:23:12;14.7;53.3
76509;SHT31;65340;51.966;5.652;2023-03-12T15:25:44;14.7;53.3
76509;SHT31;65340;51.966;5.652;2023-03-12T15:28:27;14.7;53.3
76509;SHT31;65340;51.966;5.652;2023-03-12T15:31:09;14.7;53.1
76509;SHT31;65340;51.966;5.652;2023-03-12T15:33:41;14.7;53.1
76509;SHT31;65340;51.966;5.652;2023-03-12T15:36:26;14.7;53.0
76509;SHT31;65340;51.966;5.652;2023-03-12T15:38:59;14.7;53.1
76509;SHT31;65340;51.966;5.652;2023-03-12T15:41:40;14.7;53.0
76509;SHT31;65340;51.966;5.652;2023-03-12T15:44:18;14.6;53.1
76509;SHT31;65340;51.966;5.652;2023-03-12T15:46:51;14.6;53.0
76509;SHT31;65340;51.966;5.652;2023-03-12T15:49:25;14.6;53.1
76509;SHT31;65340;51.966;5.652;2023-03-12T15:52:02;14.6;53.1
76509;SHT31;65340;51.966;5.652;2023-03-12T15:54:32;14.6;53.1
76509;SHT31;65340;51.966;5.652;2023-03-12T15:57:20;14.6;53.1
76509;SHT31;65340;51.966;5.652;2023-03-12T16:00:11;14.5;53.1
76509;SHT31;65340;51.966;5.652;2023-03-12T16:02:49;14.5;53.1
76509;SHT31;65340;51.966;5.652;2023-03-12T16:05:21;14.5;53.2
76509;SHT31;65340;51.966;5.652;2023-03-12T16:07:53;14.5;53.2
76509;SHT31;65340;51.966;5.652;2023-03-12T16:10:25;14.5;53.2
76509;SHT31;65340;51.966;5.652;2023-03-12T16:12:59;14.5;53.3
76509;SHT31;65340;51.966;5.652;2023-03-12T16:15:33;14.5;53.3
76509;SHT31;65340;51.966;5.652;2023-03-12T16:18:04;14.5;53.5
76509;SHT31;65340;51.966;5.652;2023-03-12T16:20:39;14.5;53.5
76509;SHT31;65340;51.966;5.652;2023-03-12T16:23:09;14.5;53.6
76509;SHT31;65340;51.966;5.652;2023-03-12T16:25:41;14.5;53.6
76509;SHT31;65340;51.966;5.652;2023-03-12T16:28:14;14.4;53.5
76509;SHT31;65340;51.966;5.652;2023-03-12T16:30:45;14.5;53.8
76509;SHT31;65340;51.966;5.652;2023-03-12T16:33:16;14.4;53.5
76509;SHT31;65340;51.966;5.652;2023-03-12T16:35:47;14.4;53.9
76509;SHT31;65340;51.966;5.652;2023-03-12T16:38:17;14.4;53.7
76509;SHT31;65340;51.966;5.652;2023-03-12T16:40:48;14.4;53.7
76509;SHT31;65340;51.966;5.652;2023-03-12T16:43:21;14.4;53.7
76509;SHT31;65340;51.966;5.652;2023-03-12T16:45:52;14.4;53.8
76509;SHT31;65340;51.966;5.652;2023-03-12T16:48:23;14.4;53.9